• Join FlightAware (Why Join?)
  • Login
  • US Flag 
11:48PM EDT


 

Airport Tracker/Info


-or-


 

Live Flight TrackerFlight Track Log ✈ SWA1044 ✈ 13-Jul-2013 ✈ KMSP - KMCI

Flight Track Log - Related Links

Times and Time Zones

All times are in EDT time to prevent confusion due to time zone crossing. See the SWA1044 flight status page for this flight to view local times or setup timezone preferences in your user account.

Time Position Orientation Groundspeed Altitude Reporting Facility
EDT Latitude Longitude Course Direction KTS MPH feet Rate Location/Type
03:04PM 44.8339 -93.2333 211° Southwest 158 182 2,800  Level Minneapolis Center
03:05PM 44.7886 -93.2714 211° Southwest 198 228 4,600 1,740 Climbing Minneapolis Center
03:06PM 44.7189 -93.3308 211° Southwest 254 292 6,400 2,220 Climbing Minneapolis Center
03:07PM 44.6600 -93.3900 216° Southwest 264 304 9,300 2,460 Climbing Minneapolis Center
03:08PM 44.5917 -93.4572 215° Southwest 312 359 11,600 2,400 Climbing Minneapolis Center
03:09PM 44.5136 -93.5342 215° Southwest 343 395 14,300 2,700 Climbing Minneapolis Center
03:10PM 44.4231 -93.5978 207° Southwest 366 421 17,200 2,700 Climbing Minneapolis Center
03:11PM 44.3008 -93.6456 196° South 378 435 19,900 2,400 Climbing Minneapolis Center
03:12PM 44.1928 -93.6883 196° South 397 457 22,200 2,040 Climbing Minneapolis Center
03:13PM 44.0581 -93.7417 196° South 420 483 24,600 1,800 Climbing Minneapolis Center
03:14PM 43.9408 -93.7881 196° South 434 499 26,400 1,680 Climbing Minneapolis Center
03:15PM 43.8203 -93.8342 195° South 447 514 28,100 1,560 Climbing Minneapolis Center
03:16PM 43.6978 -93.8811 195° South 456 525 29,600 1,560 Climbing Minneapolis Center
03:17PM 43.5469 -93.9397 196° South 468 539 31,300 1,620 Climbing Minneapolis Center
03:18PM 43.4375 -93.9825 196° South 472 543 33,000 1,560 Climbing Minneapolis Center
03:19PM 43.3133 -94.0306 196° South 470 541 34,600 1,440 Climbing Minneapolis Center
03:20PM 43.1661 -94.0856 195° South 465 535 36,000 600 Climbing Minneapolis Center
03:22PM 43.0189 -94.1417 196° South 462 532 36,000  Level Minneapolis Center
03:23PM 42.8997 -94.1875 196° South 454 522 36,000  Level Minneapolis Center
03:24PM 42.7783 -94.2333 195° South 455 524 36,000  Level Minneapolis Center
03:25PM 42.6581 -94.2803 196° South 456 525 36,000  Level Minneapolis Center
03:26PM 42.5153 -94.3383 197° South 453 521 36,000  Level Minneapolis Center
03:27PM 42.3844 -94.3906 196° South 463 533 36,000  Level Minneapolis Center
03:28PM 42.2625 -94.4425 197° South 459 528 36,000  Level Minneapolis Center
03:29PM 42.1406 -94.4939 197° South 458 527 36,000  Level Minneapolis Center
03:30PM 42.0181 -94.5447 197° South 460 529 36,000 -180 Level Minneapolis Center
03:31PM 41.8939 -94.5956 197° South 464 534 35,700 -600 Descending Minneapolis Center
03:32PM 41.7706 -94.6472 197° South 464 534 34,800 -960 Descending Minneapolis Center
03:33PM 41.6461 -94.7000 198° South 466 536 33,800 -1,080 Descending Minneapolis Center
03:34PM 41.4989 -94.7608 197° South 461 531 32,600 -1,020 Descending Minneapolis Center
03:35PM 41.3731 -94.8125 197° South 467 537 31,700 -960 Descending Minneapolis Center
03:36PM 41.2478 -94.8639 197° South 467 537 30,700 -960 Descending Minneapolis Center
03:37PM 41.1192 -94.9158 197° South 473 544 29,800 -960 Descending Minneapolis Center
03:38PM 40.9894 -94.9686 197° South 480 552 28,800 -1,020 Descending Minneapolis Center
03:39PM 40.8333 -95.0317 197° South 484 557 27,600 -1,020 Descending Minneapolis Center
03:40PM 40.7047 -95.0833 197° South 483 556 26,600 -1,080 Descending Minneapolis Center
03:41PM 40.5789 -95.1353 197° South 478 550 25,500 -1,620 Descending Minneapolis Center
03:43PM 40.4386 -95.1917 197° South 450 518 23,300 -2,100 Descending Minneapolis Center
03:44PM 40.3256 -95.2358 197° South 433 498 21,200 -2,040 Descending Minneapolis Center
03:45PM 40.2161 -95.2797 197° South 418 481 19,200 -2,040 Descending Minneapolis Center
03:46PM 40.1111 -95.3219 197° South 403 464 17,100 -2,100 Descending Minneapolis Center
03:46PM 40.0244 -95.3525 195° South 385 443 15,400 -1,800 Descending Kansas City Center
03:47PM 39.9339 -95.3908 198° South 362 417 13,900 -1,620 Descending Kansas City Center
03:48PM 39.8375 -95.4058 187° South 320 368 12,100 -1,680 Descending Kansas City Center
03:49PM 39.7719 -95.3403 142° Southeast 309 356 10,500 -1,020 Descending Kansas City Center
03:51PM 39.7011 -95.2672 142° Southeast 290 334 10,000 -300 Descending Kansas City Center
03:52PM 39.6544 -95.1981 131° Southeast 271 312 10,000 -540 Level Kansas City Center
03:53PM 39.6222 -95.1100 115° Southeast 278 320 8,900 -1,320 Descending Kansas City Center
03:54PM 39.5742 -95.0117 122° Southeast 284 327 7,300 -1,620 Descending Kansas City Center
03:55PM 39.5356 -94.9306 122° Southeast 277 319 5,600 -1,680 Descending Kansas City Center
03:56PM 39.4903 -94.8383 122° Southeast 271 312 3,900 -1,440 Descending Kansas City Center
03:57PM 39.4447 -94.7658 129° Southeast 270 311 2,700 -660 Descending Kansas City Center
03:58PM 39.4042 -94.7025 130° Southeast 236 272 2,600 -540 Descending Kansas City Center
03:59PM 39.3553 -94.7114 188° South 162 186 1,700 -840 Descending Kansas City Center
04:00PM 39.3164 -94.7225 192° South 144 166 900 -780 Descending Kansas City Center